createdAt,value
2018-05-05T00:01:31.268Z,4.77
2018-05-05T00:03:58.826Z,4.93
2018-05-05T00:06:26.407Z,4.77
2018-05-05T00:08:53.973Z,4.20
2018-05-05T00:11:21.505Z,4.60
2018-05-05T00:13:49.063Z,5.00
2018-05-05T00:16:16.760Z,4.97
2018-05-05T00:18:44.276Z,4.80
2018-05-05T00:21:11.801Z,4.77
2018-05-05T00:23:40.537Z,4.67
2018-05-05T00:26:08.109Z,4.73
2018-05-05T00:28:35.659Z,4.23
2018-05-05T00:31:03.233Z,5.90
2018-05-05T00:33:30.769Z,6.50
2018-05-05T00:35:58.328Z,4.10
2018-05-05T00:38:26.096Z,5.03
2018-05-05T00:40:53.727Z,4.80
2018-05-05T00:43:21.585Z,4.80
2018-05-05T00:45:49.280Z,5.27
2018-05-05T00:48:16.813Z,4.07
2018-05-05T00:50:44.328Z,4.70
2018-05-05T00:53:12.168Z,4.17
2018-05-05T00:55:39.742Z,4.67
2018-05-05T00:58:07.253Z,4.27
2018-05-05T01:00:35.032Z,4.53
2018-05-05T01:03:02.547Z,4.63
2018-05-05T01:05:30.101Z,4.30
2018-05-05T01:07:57.708Z,4.67
2018-05-05T01:10:25.224Z,4.83
2018-05-05T01:12:52.763Z,5.10
2018-05-05T01:15:20.505Z,5.20
2018-05-05T01:17:48.082Z,4.27
2018-05-05T01:20:15.638Z,4.47
2018-05-05T01:22:43.511Z,4.83
2018-05-05T01:28:09.946Z,5.17
2018-05-05T01:30:37.535Z,4.17
2018-05-05T01:33:05.138Z,5.20
2018-05-05T01:35:33.108Z,6.13
2018-05-05T01:38:00.625Z,4.37
2018-05-05T01:40:28.141Z,4.63
2018-05-05T01:42:55.697Z,4.60
2018-05-05T01:45:23.288Z,5.40
2018-05-05T01:47:50.828Z,5.33
2018-05-05T01:50:18.520Z,4.93
2018-05-05T01:52:46.035Z,5.63
2018-05-05T01:55:13.552Z,5.50
2018-05-05T01:57:41.168Z,4.37
2018-05-05T02:00:08.748Z,5.27
2018-05-05T02:02:36.281Z,5.70
2018-05-05T02:05:04.051Z,4.80
2018-05-05T02:07:31.622Z,4.82
2018-05-05T02:09:59.169Z,5.65
2018-05-05T02:12:28.052Z,5.15
2018-05-05T02:14:55.575Z,4.60
2018-05-05T02:17:23.123Z,5.40
2018-05-05T02:19:50.740Z,4.35
2018-05-05T02:22:18.292Z,5.62
2018-05-05T02:24:45.856Z,5.03
2018-05-05T02:27:13.438Z,5.18
2018-05-05T02:29:41.031Z,5.12
2018-05-05T02:32:08.593Z,5.03
2018-05-05T02:34:36.297Z,5.45
2018-05-05T02:37:03.869Z,5.53
2018-05-05T02:39:31.417Z,5.30
2018-05-05T02:41:58.970Z,4.53
2018-05-05T02:44:26.493Z,4.50
2018-05-05T02:46:54.051Z,4.65
2018-05-05T02:49:21.755Z,4.60
2018-05-05T02:51:53.321Z,5.20
2018-05-05T02:54:20.882Z,5.70
2018-05-05T02:56:48.446Z,4.85
2018-05-05T02:59:16.050Z,4.20
2018-05-05T03:01:43.871Z,5.10
2018-05-05T03:04:11.421Z,4.78
2018-05-05T03:06:38.977Z,5.32
2018-05-05T03:09:06.745Z,4.43
2018-05-05T03:11:34.368Z,5.80
2018-05-05T03:14:01.812Z,5.10
2018-05-05T03:16:29.438Z,5.22
2018-05-05T03:18:56.973Z,4.93
2018-05-05T03:21:24.539Z,5.10
2018-05-05T03:23:52.093Z,5.75
2018-05-05T03:26:19.703Z,5.00
2018-05-05T03:28:47.250Z,5.53
2018-05-05T03:31:15.089Z,5.75
2018-05-05T03:33:42.639Z,5.75
2018-05-05T03:36:10.301Z,6.53
2018-05-05T03:38:38.065Z,5.30
2018-05-05T03:41:05.727Z,5.75
2018-05-05T03:43:33.289Z,4.53
2018-05-05T03:46:01.137Z,6.40
2018-05-05T03:48:28.712Z,6.03
2018-05-05T03:50:56.477Z,5.37
2018-05-05T03:53:24.654Z,5.80
2018-05-05T03:55:52.181Z,5.53
2018-05-05T03:58:19.698Z,5.65
2018-05-05T04:00:59.392Z,6.05
2018-05-05T04:03:38.640Z,5.75
2018-05-05T04:06:06.209Z,5.82
2018-05-05T04:08:33.721Z,5.85
2018-05-05T04:11:01.246Z,6.00
2018-05-05T04:13:28.804Z,5.50
2018-05-05T04:15:56.319Z,7.50
2018-05-05T04:18:23.845Z,5.53
2018-05-05T04:20:51.852Z,5.80
2018-05-05T04:23:19.376Z,5.50
2018-05-05T04:25:46.888Z,5.90
2018-05-05T04:28:14.503Z,6.22
2018-05-05T04:30:42.019Z,5.90
2018-05-05T04:33:09.544Z,5.80
2018-05-05T04:35:37.117Z,5.00
2018-05-05T04:38:04.640Z,5.35
2018-05-05T04:40:32.748Z,5.18
2018-05-05T04:43:00.639Z,5.45
2018-05-05T04:45:28.156Z,5.20
2018-05-05T04:47:55.684Z,5.57
2018-05-05T04:50:23.237Z,5.47
2018-05-05T04:52:50.752Z,5.57
2018-05-05T04:55:18.339Z,5.12
2018-05-05T04:57:46.048Z,5.78
2018-05-05T05:00:13.572Z,5.70
2018-05-05T05:02:41.095Z,5.47
2018-05-05T05:05:08.846Z,5.07
2018-05-05T05:07:36.376Z,5.18
2018-05-05T05:10:03.909Z,5.50
2018-05-05T05:12:31.612Z,5.82
2018-05-05T05:14:59.139Z,5.68
2018-05-05T05:17:26.664Z,5.90
2018-05-05T05:19:54.225Z,5.05
2018-05-05T05:22:21.748Z,6.05
2018-05-05T05:24:49.273Z,4.47
2018-05-05T05:27:16.845Z,6.00
2018-05-05T05:29:44.372Z,5.68
2018-05-05T05:32:11.905Z,5.65
2018-05-05T05:34:39.456Z,5.57
2018-05-05T05:37:06.972Z,5.07
2018-05-05T05:39:34.509Z,5.32
2018-05-05T05:42:02.224Z,5.43
2018-05-05T05:44:30.843Z,5.25
2018-05-05T05:46:58.373Z,5.40
2018-05-05T05:49:26.812Z,5.53
2018-05-05T05:51:54.332Z,5.22
2018-05-05T05:54:21.858Z,5.00
2018-05-05T05:56:49.725Z,5.90
2018-05-05T05:59:17.723Z,6.17
2018-05-05T06:01:45.282Z,4.80
2018-05-05T06:04:12.989Z,5.05
2018-05-05T06:06:42.204Z,5.23
2018-05-05T06:09:09.718Z,5.73
2018-05-05T06:11:37.670Z,5.03
2018-05-05T06:14:05.184Z,5.30
2018-05-05T06:16:32.702Z,5.13
2018-05-05T06:19:00.636Z,5.70
2018-05-05T06:21:28.147Z,5.07
2018-05-05T06:23:55.664Z,5.20
2018-05-05T06:26:23.450Z,4.87
2018-05-05T06:28:50.961Z,3.87
2018-05-05T06:31:19.937Z,4.80
2018-05-05T06:33:49.382Z,5.00
2018-05-05T06:36:18.794Z,5.17
2018-05-05T06:38:46.762Z,5.60
2018-05-05T06:41:15.625Z,4.73
2018-05-05T06:43:45.666Z,5.03
2018-05-05T06:46:13.232Z,4.73
2018-05-05T06:48:41.099Z,4.70
2018-05-05T06:51:08.760Z,5.40
2018-05-05T06:53:36.512Z,4.30
2018-05-05T06:56:04.847Z,3.93
2018-05-05T06:58:33.366Z,5.50
2018-05-05T07:01:01.250Z,5.50
2018-05-05T07:03:29.228Z,4.97
2018-05-05T07:05:57.293Z,5.27
2018-05-05T07:08:25.885Z,5.43
2018-05-05T07:10:55.323Z,4.87
2018-05-05T07:13:23.571Z,3.93
2018-05-05T07:15:52.133Z,5.40
2018-05-05T07:18:19.989Z,5.33
2018-05-05T07:20:48.380Z,5.33
2018-05-05T07:23:16.237Z,6.90
2018-05-05T07:25:44.410Z,4.90
2018-05-05T07:28:13.108Z,5.90
2018-05-05T07:30:42.027Z,4.60
2018-05-05T07:33:10.224Z,4.97
2018-05-05T07:35:37.979Z,5.30
2018-05-05T07:38:07.136Z,4.87
2018-05-05T07:40:35.429Z,5.60
2018-05-05T07:43:03.151Z,5.63
2018-05-05T07:45:30.933Z,5.00
2018-05-05T07:47:58.798Z,5.43
2018-05-05T07:50:26.369Z,5.70
2018-05-05T07:52:54.327Z,6.27
2018-05-05T07:55:24.836Z,5.70
2018-05-05T07:57:52.595Z,5.00
2018-05-05T08:00:20.498Z,6.40
2018-05-05T08:02:48.451Z,5.90
2018-05-05T08:05:16.236Z,5.83
2018-05-05T08:07:44.296Z,6.20
2018-05-05T08:10:12.543Z,5.80
2018-05-05T08:12:40.326Z,5.70
2018-05-05T08:15:09.843Z,5.97
2018-05-05T08:17:38.526Z,6.30
2018-05-05T08:20:08.548Z,6.13
2018-05-05T08:22:37.588Z,6.60
2018-05-05T08:25:06.733Z,6.57
2018-05-05T08:27:34.805Z,5.67
2018-05-05T08:30:02.878Z,6.33
2018-05-05T08:32:30.422Z,6.17
2018-05-05T08:34:58.091Z,7.37
2018-05-05T08:37:25.852Z,6.27
2018-05-05T08:39:54.525Z,6.73
2018-05-05T08:42:22.954Z,6.47
2018-05-05T08:44:51.589Z,7.00
2018-05-05T08:47:19.453Z,6.80
2018-05-05T08:49:47.777Z,6.87
2018-05-05T08:52:16.031Z,5.40
2018-05-05T08:54:43.816Z,6.83
2018-05-05T08:57:11.764Z,6.50
2018-05-05T08:59:40.467Z,6.50
2018-05-05T09:02:09.034Z,6.87
2018-05-05T09:04:36.806Z,6.33
2018-05-05T09:07:04.971Z,7.13
2018-05-05T09:09:32.719Z,6.80
2018-05-05T09:12:01.382Z,6.43
2018-05-05T09:14:29.290Z,6.50
2018-05-05T09:16:57.462Z,6.50
2018-05-05T09:19:25.430Z,6.83
2018-05-05T09:21:54.219Z,6.47
2018-05-05T09:24:22.188Z,6.17
2018-05-05T09:26:50.157Z,6.10
2018-05-05T09:29:18.025Z,7.10
2018-05-05T09:31:46.120Z,6.57
2018-05-05T09:34:14.010Z,6.33
2018-05-05T09:36:42.137Z,8.47
2018-05-05T09:39:09.972Z,7.27
2018-05-05T09:41:39.510Z,8.77
2018-05-05T09:44:07.639Z,7.10
2018-05-05T09:46:35.306Z,7.60
2018-05-05T09:49:03.002Z,7.13
2018-05-05T09:51:30.750Z,7.13
2018-05-05T09:53:58.429Z,7.43
2018-05-05T09:56:25.989Z,7.37
2018-05-05T09:58:53.546Z,7.70
2018-05-05T10:01:21.065Z,7.20
2018-05-05T10:03:48.719Z,8.70
2018-05-05T10:06:16.947Z,6.73
2018-05-05T10:08:44.842Z,7.33
2018-05-05T10:11:14.316Z,6.60
2018-05-05T10:13:43.321Z,7.97
2018-05-05T10:16:10.940Z,7.30
2018-05-05T10:18:38.836Z,7.93
2018-05-05T10:21:06.909Z,8.33
2018-05-05T10:23:35.286Z,8.27
2018-05-05T10:26:02.912Z,7.40
2018-05-05T10:28:30.817Z,7.47
2018-05-05T10:30:59.851Z,7.70
2018-05-05T10:33:27.937Z,8.23
2018-05-05T10:35:55.661Z,7.87
2018-05-05T10:38:23.180Z,6.70
2018-05-05T10:40:51.069Z,6.23
2018-05-05T10:43:18.657Z,6.60
2018-05-05T10:45:46.189Z,6.40
2018-05-05T10:48:13.707Z,6.00
2018-05-05T10:50:41.691Z,6.47
2018-05-05T10:53:09.483Z,7.20
2018-05-05T10:55:37.090Z,6.43
2018-05-05T10:58:05.111Z,6.43
2018-05-05T11:00:32.679Z,6.77
2018-05-05T11:03:00.229Z,7.13
2018-05-05T11:05:27.979Z,7.20
2018-05-05T11:07:55.514Z,6.30
2018-05-05T11:10:23.028Z,6.90
2018-05-05T11:12:50.760Z,7.80
2018-05-05T11:15:18.290Z,7.97
2018-05-05T11:17:45.867Z,7.10
2018-05-05T11:20:13.844Z,7.10
2018-05-05T11:22:41.374Z,7.27
2018-05-05T11:25:08.896Z,6.70
2018-05-05T11:27:36.832Z,8.80
2018-05-05T11:30:04.368Z,6.80
2018-05-05T11:32:31.876Z,6.67
2018-05-05T11:34:59.428Z,6.97
2018-05-05T11:37:26.948Z,6.83
2018-05-05T11:39:54.472Z,7.00
2018-05-05T11:42:22.056Z,6.63
2018-05-05T11:44:49.811Z,6.33
2018-05-05T11:47:17.341Z,6.17
2018-05-05T11:49:44.985Z,5.93
2018-05-05T11:52:12.647Z,6.07
2018-05-05T11:54:40.221Z,6.03
2018-05-05T11:57:07.932Z,5.50
2018-05-05T11:59:35.529Z,7.13
2018-05-05T12:02:03.077Z,6.40
2018-05-05T12:04:30.964Z,6.00
2018-05-05T12:06:58.490Z,6.40
2018-05-05T12:09:26.015Z,6.80
2018-05-05T12:11:53.704Z,5.70
2018-05-05T12:14:21.254Z,6.87
2018-05-05T12:16:48.772Z,6.40
2018-05-05T12:19:16.333Z,6.50
2018-05-05T12:21:43.857Z,6.63
2018-05-05T12:24:11.453Z,6.10
2018-05-05T12:26:39.212Z,6.37
2018-05-05T12:29:06.787Z,6.90
2018-05-05T12:31:34.309Z,6.47
2018-05-05T12:34:01.957Z,6.37
2018-05-05T12:36:29.494Z,7.20
2018-05-05T12:38:57.004Z,5.80
2018-05-05T12:41:24.845Z,5.80
2018-05-05T12:43:52.622Z,6.30
2018-05-05T12:46:20.148Z,7.20
2018-05-05T12:48:47.784Z,7.50
2018-05-05T12:51:15.245Z,7.07
2018-05-05T12:53:42.765Z,5.77
2018-05-05T12:56:10.607Z,7.07
2018-05-05T12:58:38.120Z,6.53
2018-05-05T13:01:05.635Z,6.23
2018-05-05T13:03:33.601Z,6.13
2018-05-05T13:06:01.132Z,5.80
2018-05-05T13:08:28.640Z,5.13
2018-05-05T13:10:56.475Z,7.77
2018-05-05T13:13:24.052Z,6.20
2018-05-05T13:15:51.569Z,5.57
2018-05-05T13:18:21.240Z,6.30
2018-05-05T13:20:48.832Z,5.63
2018-05-05T13:23:16.364Z,6.53
2018-05-05T13:25:44.079Z,6.53
2018-05-05T13:28:11.603Z,5.83
2018-05-05T13:30:39.136Z,5.97
2018-05-05T13:33:06.987Z,6.40
2018-05-05T13:35:34.525Z,6.03
2018-05-05T13:38:02.187Z,4.87
2018-05-05T13:40:30.583Z,5.10
2018-05-05T13:42:58.222Z,5.40
2018-05-05T13:45:25.739Z,6.20
2018-05-05T13:47:53.467Z,5.40
2018-05-05T13:50:20.985Z,5.40
2018-05-05T13:52:48.584Z,5.10
2018-05-05T13:55:16.331Z,6.50
2018-05-05T13:57:43.844Z,5.60
2018-05-05T14:00:11.391Z,5.67
2018-05-05T14:02:39.205Z,5.47
2018-05-05T14:05:06.724Z,5.70
2018-05-05T14:07:34.270Z,5.00
2018-05-05T14:10:02.123Z,5.00
2018-05-05T14:12:29.674Z,5.63
2018-05-05T14:14:57.253Z,5.60
2018-05-05T14:17:25.100Z,5.03
2018-05-05T14:19:52.966Z,5.50
2018-05-05T14:22:20.518Z,5.33
2018-05-05T14:24:48.286Z,4.60
2018-05-05T14:27:16.055Z,4.90
2018-05-05T14:29:43.925Z,5.70
2018-05-05T14:32:11.771Z,5.37
2018-05-05T14:34:39.330Z,5.73
2018-05-05T14:37:06.967Z,4.90
2018-05-05T14:39:34.864Z,4.90
2018-05-05T14:42:03.562Z,5.10
2018-05-05T14:44:31.093Z,5.03
2018-05-05T14:46:58.780Z,5.03
2018-05-05T14:49:26.320Z,4.90
2018-05-05T14:51:53.988Z,4.80
2018-05-05T14:54:21.869Z,5.30
2018-05-05T14:56:49.389Z,4.37
2018-05-05T14:59:16.930Z,4.40
2018-05-05T15:01:44.501Z,4.73
2018-05-05T15:06:45.794Z,5.43
2018-05-05T15:09:17.164Z,5.43
2018-05-05T15:11:44.741Z,4.50
2018-05-05T15:14:12.381Z,4.47
2018-05-05T15:16:39.924Z,5.03
2018-05-05T15:19:07.446Z,5.33
2018-05-05T15:21:35.054Z,4.90
2018-05-05T15:24:02.690Z,4.63
2018-05-05T15:26:30.207Z,4.50
2018-05-05T15:28:57.912Z,4.93
2018-05-05T15:31:25.476Z,5.47
2018-05-05T15:33:53.223Z,4.13
2018-05-05T15:36:21.024Z,4.60
2018-05-05T15:38:48.638Z,4.97
2018-05-05T15:41:16.201Z,4.80
2018-05-05T15:43:43.900Z,5.20
2018-05-05T15:46:11.437Z,4.97
2018-05-05T15:48:38.961Z,5.37
2018-05-05T15:51:06.524Z,4.87
2018-05-05T15:53:34.560Z,4.70
2018-05-05T15:56:02.220Z,5.77
2018-05-05T15:58:30.188Z,5.20
2018-05-05T16:00:57.825Z,5.80
2018-05-05T16:03:25.333Z,5.27
2018-05-05T16:05:52.903Z,4.67
2018-05-05T16:08:20.490Z,5.00
2018-05-05T16:10:48.029Z,4.47
2018-05-05T16:13:15.683Z,5.10
2018-05-05T16:15:43.231Z,5.00
2018-05-05T16:18:10.744Z,5.63
2018-05-05T16:20:38.617Z,5.27
2018-05-05T16:23:06.124Z,4.93
2018-05-05T16:25:33.645Z,5.17
2018-05-05T16:28:01.214Z,4.53
2018-05-05T16:30:28.752Z,4.93
2018-05-05T16:32:56.309Z,4.87
2018-05-05T16:35:24.104Z,5.20
2018-05-05T16:37:51.627Z,3.30
2018-05-05T16:40:19.267Z,4.97
2018-05-05T16:42:47.085Z,5.40
2018-05-05T16:45:14.602Z,4.90
2018-05-05T16:47:42.227Z,5.33
2018-05-05T16:50:09.840Z,4.93
2018-05-05T16:52:37.383Z,5.80
2018-05-05T16:55:04.891Z,5.00
2018-05-05T16:57:32.741Z,6.10
2018-05-05T17:00:00.333Z,5.53
2018-05-05T17:02:27.840Z,5.53
2018-05-05T17:04:55.605Z,4.90
2018-05-05T17:07:23.153Z,4.70
2018-05-05T17:09:50.661Z,5.27
2018-05-05T17:12:18.381Z,4.90
2018-05-05T17:14:45.898Z,5.20
2018-05-05T17:17:13.416Z,5.53
2018-05-05T17:19:41.295Z,4.70
2018-05-05T17:22:08.821Z,4.60
2018-05-05T17:24:36.330Z,5.30
2018-05-05T17:27:03.880Z,5.23
2018-05-05T17:29:31.395Z,4.43
2018-05-05T17:31:58.939Z,5.10
2018-05-05T17:34:26.748Z,4.97
2018-05-05T17:36:54.274Z,5.50
2018-05-05T17:39:21.793Z,5.50
2018-05-05T17:41:49.401Z,6.07
2018-05-05T17:44:16.983Z,4.43
2018-05-05T17:46:44.527Z,4.90
2018-05-05T17:49:12.832Z,4.23
2018-05-05T17:51:40.716Z,5.40
2018-05-05T17:54:08.268Z,4.50
2018-05-05T17:56:36.108Z,3.97
2018-05-05T17:59:03.629Z,4.57
2018-05-05T18:01:31.155Z,5.07
2018-05-05T18:03:58.721Z,5.00
2018-05-05T18:06:26.337Z,4.60
2018-05-05T18:08:54.011Z,4.60
2018-05-05T18:11:22.108Z,4.40
2018-05-05T18:13:49.787Z,4.77
2018-05-05T18:16:18.323Z,4.70
2018-05-05T18:18:46.194Z,5.00
2018-05-05T18:21:17.136Z,3.97
2018-05-05T18:23:44.724Z,5.30
2018-05-05T18:26:12.662Z,5.87
2018-05-05T18:28:40.420Z,5.50
2018-05-05T18:31:08.143Z,5.70
2018-05-05T18:33:35.785Z,5.60
2018-05-05T18:36:03.304Z,5.70
2018-05-05T18:38:30.844Z,6.47
2018-05-05T18:40:58.547Z,5.40
2018-05-05T18:43:26.403Z,6.20
2018-05-05T18:45:54.075Z,5.30
2018-05-05T18:48:21.807Z,6.03
2018-05-05T18:50:49.482Z,6.20
2018-05-05T18:53:17.280Z,6.10
2018-05-05T18:55:45.114Z,5.70
2018-05-05T18:58:12.981Z,5.53
2018-05-05T19:00:41.564Z,5.47
2018-05-05T19:03:09.842Z,6.77
2018-05-05T19:05:37.605Z,5.87
2018-05-05T19:08:05.779Z,6.10
2018-05-05T19:10:33.962Z,5.63
2018-05-05T19:13:01.616Z,5.47
2018-05-05T19:15:29.387Z,5.70
2018-05-05T19:17:57.593Z,6.43
2018-05-05T19:20:25.365Z,5.47
2018-05-05T19:22:53.496Z,5.37
2018-05-05T19:25:21.325Z,5.50
2018-05-05T19:27:49.020Z,5.10
2018-05-05T19:30:16.885Z,5.30
2018-05-05T19:32:44.952Z,5.40
2018-05-05T19:35:12.725Z,4.90
2018-05-05T19:37:40.560Z,5.73
2018-05-05T19:40:09.068Z,5.20
2018-05-05T19:42:36.933Z,6.10
2018-05-05T19:45:04.802Z,5.87
2018-05-05T19:47:32.872Z,5.00
2018-05-05T19:50:00.533Z,5.80
2018-05-05T19:52:28.196Z,6.03
2018-05-05T19:54:56.266Z,5.17
2018-05-05T19:57:24.099Z,5.97
2018-05-05T19:59:52.766Z,5.60
2018-05-05T20:02:21.712Z,4.90
2018-05-05T20:04:49.650Z,5.13
2018-05-05T20:07:17.545Z,5.60
2018-05-05T20:09:45.411Z,6.43
2018-05-05T20:12:13.484Z,6.80
2018-05-05T20:14:42.184Z,8.00
2018-05-05T20:17:10.013Z,6.77
2018-05-05T20:19:37.698Z,7.13
2018-05-05T20:22:05.565Z,5.50
2018-05-05T20:24:34.148Z,5.90
2018-05-05T20:27:01.779Z,6.50
2018-05-05T20:29:29.404Z,10.40
2018-05-05T20:31:57.552Z,10.40
2018-05-05T20:34:25.399Z,9.20
2018-05-05T20:36:53.058Z,10.17
2018-05-05T20:39:20.940Z,8.50
2018-05-05T20:41:48.456Z,7.60
2018-05-05T20:44:15.992Z,7.30
2018-05-05T20:46:44.027Z,7.83
2018-05-05T20:49:11.577Z,7.60
2018-05-05T20:51:39.155Z,7.53
2018-05-05T20:54:07.831Z,6.70
2018-05-05T20:56:35.700Z,7.07
2018-05-05T20:59:03.671Z,7.97
2018-05-05T21:01:32.145Z,11.57
2018-05-05T21:03:59.945Z,9.33
2018-05-05T21:06:27.852Z,6.30
2018-05-05T21:08:55.737Z,7.13
2018-05-05T21:11:23.520Z,5.37
2018-05-05T21:13:51.176Z,5.67
2018-05-05T21:16:19.458Z,5.60
2018-05-05T21:18:47.321Z,4.93
2018-05-05T21:21:15.389Z,5.67
2018-05-05T21:23:43.426Z,5.03
2018-05-05T21:26:11.434Z,6.43
2018-05-05T21:28:39.912Z,6.07
2018-05-05T21:31:08.173Z,5.87
2018-05-05T21:33:36.155Z,5.63
2018-05-05T21:36:03.816Z,6.37
2018-05-05T21:38:33.654Z,5.70
2018-05-05T21:41:01.422Z,6.30
2018-05-05T21:43:28.957Z,5.60
2018-05-05T21:45:56.568Z,6.27
2018-05-05T21:48:24.478Z,5.73
2018-05-05T21:50:52.011Z,6.67
2018-05-05T21:53:19.806Z,5.60
2018-05-05T21:55:47.365Z,6.17
2018-05-05T21:58:14.909Z,5.87
2018-05-05T22:00:42.686Z,7.00
2018-05-05T22:03:10.682Z,6.40
2018-05-05T22:05:38.229Z,5.30
2018-05-05T22:08:05.801Z,5.73
2018-05-05T22:10:33.504Z,6.33
2018-05-05T22:13:02.033Z,6.30
2018-05-05T22:15:30.398Z,5.77
2018-05-05T22:17:58.671Z,6.47
2018-05-05T22:20:26.210Z,6.27
2018-05-05T22:22:54.102Z,6.60
2018-05-05T22:25:21.617Z,5.60
2018-05-05T22:27:49.141Z,6.10
2018-05-05T22:30:16.705Z,5.90
2018-05-05T22:32:44.302Z,5.70
2018-05-05T22:35:12.094Z,5.87
2018-05-05T22:37:39.661Z,6.53
2018-05-05T22:40:07.397Z,5.80
2018-05-05T22:42:35.547Z,6.13
2018-05-05T22:45:03.364Z,6.10
2018-05-05T22:47:31.008Z,6.60
2018-05-05T22:49:58.589Z,6.40
2018-05-05T22:52:26.354Z,6.57
2018-05-05T22:54:53.906Z,6.40
2018-05-05T22:57:21.470Z,7.10
2018-05-05T22:59:49.812Z,7.13
2018-05-05T23:02:17.342Z,6.20
2018-05-05T23:04:44.872Z,7.77
2018-05-05T23:07:12.727Z,6.20
2018-05-05T23:09:40.292Z,7.13
2018-05-05T23:12:07.966Z,6.70
2018-05-05T23:14:35.700Z,6.80
2018-05-05T23:17:03.286Z,6.50
2018-05-05T23:19:30.818Z,5.97
2018-05-05T23:21:58.484Z,7.10
2018-05-05T23:24:26.018Z,6.50
2018-05-05T23:26:53.534Z,6.70
2018-05-05T23:29:21.593Z,6.23
2018-05-05T23:31:49.128Z,7.60
2018-05-05T23:34:16.654Z,6.40
2018-05-05T23:36:44.466Z,7.03
2018-05-05T23:39:12.872Z,7.33
2018-05-05T23:41:40.431Z,6.60
2018-05-05T23:44:08.145Z,6.90
2018-05-05T23:46:35.695Z,6.67
2018-05-05T23:49:03.490Z,7.77
2018-05-05T23:51:31.055Z,7.60
2018-05-05T23:53:58.593Z,6.20
2018-05-05T23:56:26.374Z,6.30
2018-05-05T23:58:54.196Z,6.80
